createdAt,value
2019-03-02T00:00:27.825Z,47.80
2019-03-02T00:03:34.846Z,49.20
2019-03-02T00:06:39.677Z,46.57
2019-03-02T00:09:44.699Z,44.30
2019-03-02T00:12:50.123Z,51.80
2019-03-02T00:15:55.568Z,47.97
2019-03-02T00:19:02.919Z,45.93
2019-03-02T00:22:07.720Z,45.23
2019-03-02T00:25:13.063Z,47.30
2019-03-02T00:28:18.702Z,47.70
2019-03-02T00:31:23.642Z,46.80
2019-03-02T00:34:28.833Z,49.27
2019-03-02T00:37:35.519Z,48.97
2019-03-02T00:40:40.624Z,46.60
2019-03-02T00:43:45.595Z,48.00
2019-03-02T00:46:50.629Z,48.10
2019-03-02T00:49:57.252Z,50.00
2019-03-02T00:53:02.491Z,49.00
2019-03-02T00:56:08.849Z,51.87
2019-03-02T00:59:14.134Z,49.80
2019-03-02T01:02:19.232Z,50.30
2019-03-02T01:05:24.421Z,45.70
2019-03-02T01:08:31.753Z,50.20
2019-03-02T01:11:36.194Z,48.70
2019-03-02T01:14:41.617Z,47.90
2019-03-02T01:17:46.797Z,50.90
2019-03-02T01:20:51.921Z,50.67
2019-03-02T01:23:59.798Z,49.50
2019-03-02T01:27:03.754Z,47.87
2019-03-02T01:30:12.073Z,51.83
2019-03-02T01:33:17.106Z,48.70
2019-03-02T01:36:22.151Z,49.67
2019-03-02T01:39:29.223Z,48.77
2019-03-02T01:42:34.010Z,46.00
2019-03-02T01:45:39.119Z,52.70
2019-03-02T01:48:44.172Z,50.43
2019-03-02T01:51:49.357Z,49.70
2019-03-02T01:54:55.823Z,49.67
2019-03-02T01:58:01.110Z,49.13
2019-03-02T02:01:06.474Z,48.90
2019-03-02T02:04:11.655Z,45.77
2019-03-02T02:07:18.034Z,45.33
2019-03-02T02:10:24.000Z,44.57
2019-03-02T02:13:29.134Z,43.57
2019-03-02T02:16:34.154Z,38.23
2019-03-02T02:19:39.653Z,35.97
2019-03-02T02:22:44.919Z,36.20
2019-03-02T02:25:49.950Z,33.20
2019-03-02T02:28:54.991Z,36.40
2019-03-02T02:32:00.091Z,35.57
2019-03-02T02:35:05.376Z,35.47
2019-03-02T02:38:11.293Z,35.10
2019-03-02T02:41:21.994Z,32.47
2019-03-02T02:44:24.037Z,31.80
2019-03-02T02:47:29.152Z,34.50
2019-03-02T02:50:34.208Z,34.57
2019-03-02T02:53:40.218Z,32.63
2019-03-02T02:56:46.140Z,33.93
2019-03-02T02:59:51.262Z,32.13
2019-03-02T03:02:56.300Z,35.57
2019-03-02T03:06:01.487Z,34.37
2019-03-02T03:09:17.921Z,35.57
2019-03-02T03:12:24.744Z,34.47
2019-03-02T03:15:36.922Z,34.60
2019-03-02T03:18:47.013Z,35.03
2019-03-02T03:21:49.523Z,35.70
2019-03-02T03:24:54.484Z,36.03
2019-03-02T03:27:59.595Z,33.70
2019-03-02T03:31:04.756Z,34.33
2019-03-02T03:34:09.848Z,35.27
2019-03-02T03:37:15.104Z,35.67
2019-03-02T03:40:25.164Z,36.30
2019-03-02T03:43:27.015Z,36.67
2019-03-02T03:46:32.049Z,34.17
2019-03-02T03:49:37.135Z,32.67
2019-03-02T03:52:43.995Z,34.30
2019-03-02T03:55:49.067Z,34.77
2019-03-02T03:58:54.193Z,32.63
2019-03-02T04:01:59.304Z,36.10
2019-03-02T04:05:08.476Z,36.20
2019-03-02T04:08:11.396Z,34.07
2019-03-02T04:11:16.499Z,33.30
2019-03-02T04:14:23.380Z,33.87
2019-03-02T04:17:28.267Z,35.07
2019-03-02T04:20:36.493Z,32.80
2019-03-02T04:23:41.600Z,33.23
2019-03-02T04:26:46.640Z,36.70
2019-03-02T04:29:55.309Z,34.83
2019-03-02T04:33:01.669Z,36.90
2019-03-02T04:36:09.424Z,40.97
2019-03-02T04:39:13.761Z,38.37
2019-03-02T04:42:18.736Z,38.17
2019-03-02T04:45:23.715Z,37.13
2019-03-02T04:48:28.811Z,38.33
2019-03-02T04:51:35.143Z,35.57
2019-03-02T04:54:40.658Z,37.00
2019-03-02T04:57:45.631Z,34.63
2019-03-02T05:00:50.615Z,36.50
2019-03-02T05:03:57.195Z,34.77
2019-03-02T05:07:02.452Z,37.93
2019-03-02T05:10:08.865Z,36.93
2019-03-02T05:13:13.903Z,37.67
2019-03-02T05:16:18.949Z,34.30
2019-03-02T05:19:29.944Z,35.30
2019-03-02T05:22:36.620Z,32.90
2019-03-02T05:25:41.739Z,35.00
2019-03-02T05:28:47.454Z,32.27
2019-03-02T05:31:52.566Z,34.03
2019-03-02T05:34:57.628Z,34.80
2019-03-02T05:38:05.578Z,31.33
2019-03-02T05:41:10.754Z,31.77
2019-03-02T05:44:15.876Z,31.97
2019-03-02T05:47:21.036Z,32.67
2019-03-02T05:50:26.550Z,33.70
2019-03-02T05:53:32.907Z,31.37
2019-03-02T05:56:37.883Z,29.87
2019-03-02T05:59:42.876Z,32.77
2019-03-02T06:02:47.983Z,31.80
2019-03-02T06:05:53.584Z,30.03
2019-03-02T06:08:58.586Z,29.90
2019-03-02T06:12:04.841Z,32.30
2019-03-02T06:15:10.942Z,29.50
2019-03-02T06:18:15.994Z,28.53
2019-03-02T06:21:20.969Z,28.97
2019-03-02T06:24:26.839Z,30.37
2019-03-02T06:27:32.191Z,31.83
2019-03-02T06:30:40.549Z,28.30
2019-03-02T06:33:45.124Z,29.73
2019-03-02T06:36:50.563Z,29.00
2019-03-02T06:39:56.308Z,30.80
2019-03-02T06:43:02.014Z,25.60
2019-03-02T06:46:07.200Z,26.33
2019-03-02T06:49:12.644Z,26.87
2019-03-02T06:52:19.157Z,29.13
2019-03-02T06:55:24.709Z,28.87
2019-03-02T06:58:30.497Z,26.80
2019-03-02T07:01:35.519Z,28.53
2019-03-02T07:04:43.038Z,27.83
2019-03-02T07:07:48.142Z,27.57
2019-03-02T07:10:54.503Z,25.70
2019-03-02T07:13:59.891Z,25.67
2019-03-02T07:17:04.978Z,26.37
2019-03-02T07:20:15.954Z,26.00
2019-03-02T07:23:21.120Z,26.80
2019-03-02T07:26:26.150Z,30.07
2019-03-02T07:29:32.027Z,28.20
2019-03-02T07:32:37.315Z,27.77
2019-03-02T07:35:42.302Z,26.93
2019-03-02T07:38:47.248Z,35.10
2019-03-02T07:41:54.205Z,27.30
2019-03-02T07:44:59.386Z,27.13
2019-03-02T07:48:04.691Z,28.97
2019-03-02T07:51:09.731Z,25.13
2019-03-02T07:54:15.751Z,28.87
2019-03-02T07:57:20.718Z,27.40
2019-03-02T08:00:25.827Z,24.27
2019-03-02T08:03:30.956Z,24.37
2019-03-02T08:06:36.145Z,24.20
2019-03-02T08:09:41.171Z,27.00
2019-03-02T08:12:46.210Z,28.23
2019-03-02T08:15:51.337Z,25.97
2019-03-02T08:18:56.555Z,24.87
2019-03-02T08:22:01.677Z,27.90
2019-03-02T08:25:07.847Z,24.07
2019-03-02T08:28:13.039Z,24.07
2019-03-02T08:31:18.218Z,26.57
2019-03-02T08:34:23.163Z,23.57
2019-03-02T08:37:29.793Z,22.30
2019-03-02T08:40:34.967Z,24.20
2019-03-02T08:43:40.035Z,23.63
2019-03-02T08:46:45.078Z,22.90
2019-03-02T08:49:50.031Z,22.27
2019-03-02T08:52:55.130Z,22.33
2019-03-02T08:56:00.172Z,23.13
2019-03-02T08:59:05.278Z,20.77
2019-03-02T09:02:10.398Z,22.70
2019-03-02T09:05:15.662Z,21.70
2019-03-02T09:08:20.771Z,19.63
2019-03-02T09:11:25.815Z,20.77
2019-03-02T09:14:30.855Z,19.50
2019-03-02T09:17:35.987Z,19.57
2019-03-02T09:20:40.960Z,20.30
2019-03-02T09:23:46.019Z,19.70
2019-03-02T09:26:51.136Z,20.90
2019-03-02T09:29:59.034Z,20.40
2019-03-02T09:33:02.883Z,22.17
2019-03-02T09:36:07.899Z,20.33
2019-03-02T09:39:14.522Z,21.27
2019-03-02T09:42:19.563Z,21.57
2019-03-02T09:45:24.658Z,22.07
2019-03-02T09:48:29.685Z,22.27
2019-03-02T09:51:34.645Z,23.03
2019-03-02T09:54:39.809Z,21.70
2019-03-02T09:57:47.539Z,22.93
2019-03-02T10:00:51.708Z,23.90
2019-03-02T10:03:58.792Z,21.47
2019-03-02T10:07:04.345Z,24.07
2019-03-02T10:10:11.094Z,24.03
2019-03-02T10:13:16.141Z,24.60
2019-03-02T10:16:21.247Z,24.93
2019-03-02T10:19:28.922Z,25.83
2019-03-02T10:22:35.202Z,28.13
2019-03-02T10:25:39.895Z,25.87
2019-03-02T10:28:44.895Z,27.30
2019-03-02T10:31:49.868Z,25.53
2019-03-02T10:34:54.828Z,28.50
2019-03-02T10:37:59.859Z,28.10
2019-03-02T10:41:04.967Z,30.30
2019-03-02T10:44:10.083Z,29.17
2019-03-02T10:47:15.207Z,28.93
2019-03-02T10:50:23.270Z,30.20
2019-03-02T10:53:28.178Z,33.67
2019-03-02T10:56:33.354Z,35.77
2019-03-02T10:59:38.397Z,36.13
2019-03-02T11:02:43.512Z,30.93
2019-03-02T11:06:04.698Z,30.37
2019-03-02T11:09:30.456Z,30.63
2019-03-02T11:13:05.283Z,31.93
2019-03-02T11:16:21.879Z,30.70
2019-03-02T11:19:47.410Z,28.37
2019-03-02T11:23:15.719Z,29.73
2019-03-02T11:26:43.666Z,28.30
2019-03-02T11:29:57.147Z,29.20
2019-03-02T11:33:15.477Z,29.10
2019-03-02T11:36:34.928Z,28.33
2019-03-02T11:39:55.247Z,29.40
2019-03-02T11:43:36.739Z,26.33
2019-03-02T11:46:53.746Z,25.90
2019-03-02T11:50:23.901Z,26.60
2019-03-02T11:53:53.785Z,24.77
2019-03-02T11:57:17.794Z,24.70
2019-03-02T12:00:57.907Z,24.73
2019-03-02T12:04:23.583Z,26.20
2019-03-02T12:08:02.564Z,26.30
2019-03-02T12:11:22.783Z,26.60
2019-03-02T12:14:35.172Z,25.40
2019-03-02T12:17:50.016Z,26.23
2019-03-02T12:21:23.226Z,25.43
2019-03-02T12:24:45.828Z,26.10
2019-03-02T12:28:09.072Z,25.43
2019-03-02T12:31:23.544Z,24.60
2019-03-02T12:34:46.394Z,25.57
2019-03-02T12:38:11.672Z,23.60
2019-03-02T12:41:34.760Z,24.37
2019-03-02T12:44:57.873Z,26.77
2019-03-02T12:48:29.386Z,24.97
2019-03-02T12:52:02.631Z,25.40
2019-03-02T12:55:35.885Z,25.47
2019-03-02T12:59:02.844Z,26.53
2019-03-02T13:02:35.950Z,26.97
2019-03-02T13:06:03.131Z,25.40
2019-03-02T13:09:29.996Z,23.80
2019-03-02T13:12:46.126Z,24.23
2019-03-02T13:16:10.304Z,24.30
2019-03-02T13:19:31.551Z,26.37
2019-03-02T13:23:13.559Z,28.20
2019-03-02T13:26:28.478Z,26.87
2019-03-02T13:29:53.303Z,27.90
2019-03-02T13:33:19.701Z,26.40
2019-03-02T13:36:46.594Z,26.37
2019-03-02T13:40:19.637Z,27.57
2019-03-02T13:43:35.184Z,25.83
2019-03-02T13:46:57.983Z,27.07
2019-03-02T13:50:31.235Z,27.80
2019-03-02T13:54:04.140Z,26.50
2019-03-02T13:57:19.682Z,25.63
2019-03-02T14:00:44.538Z,27.83
2019-03-02T14:04:07.392Z,25.07
2019-03-02T14:07:42.398Z,25.10
2019-03-02T14:11:07.129Z,25.67
2019-03-02T14:14:34.254Z,26.60
2019-03-02T14:17:58.673Z,26.43
2019-03-02T14:21:21.254Z,26.90
2019-03-02T14:24:37.541Z,26.80
2019-03-02T14:28:01.932Z,26.23
2019-03-02T14:31:20.143Z,28.50
2019-03-02T14:34:43.846Z,28.10
2019-03-02T14:38:05.278Z,27.20
2019-03-02T14:41:42.091Z,28.67
2019-03-02T14:45:01.106Z,28.10
2019-03-02T14:48:28.403Z,28.97
2019-03-02T14:51:48.179Z,25.87
2019-03-02T14:55:07.568Z,27.93
2019-03-02T14:58:38.703Z,25.80
2019-03-02T15:02:01.508Z,25.97
2019-03-02T15:05:11.959Z,25.77
2019-03-02T15:08:37.433Z,25.03
2019-03-02T15:11:58.544Z,28.83
2019-03-02T15:15:16.501Z,25.57
2019-03-02T15:18:43.383Z,28.27
2019-03-02T15:22:03.837Z,26.27
2019-03-02T15:25:29.724Z,25.70
2019-03-02T15:28:45.368Z,25.10
2019-03-02T15:31:56.566Z,23.50
2019-03-02T15:35:18.020Z,26.03
2019-03-02T15:38:48.046Z,23.07
2019-03-02T15:42:18.006Z,25.83
2019-03-02T15:45:43.901Z,23.80
2019-03-02T15:48:54.499Z,24.27
2019-03-02T15:52:17.459Z,25.00
2019-03-02T15:55:41.301Z,25.77
2019-03-02T15:58:59.586Z,26.10
2019-03-02T16:02:13.927Z,25.47
2019-03-02T16:05:37.967Z,23.40
2019-03-02T16:09:17.046Z,23.50
2019-03-02T16:12:35.757Z,22.07
2019-03-02T16:16:00.036Z,24.03
2019-03-02T16:19:29.098Z,22.17
2019-03-02T16:22:53.111Z,23.40
2019-03-02T16:26:13.105Z,20.57
2019-03-02T16:29:42.667Z,23.50
2019-03-02T16:33:12.946Z,23.70
2019-03-02T16:36:36.246Z,22.80
2019-03-02T16:40:03.131Z,24.70
2019-03-02T16:43:15.408Z,24.83
2019-03-02T16:46:27.243Z,22.83
2019-03-02T16:49:50.159Z,21.07
2019-03-02T16:53:29.715Z,21.00
2019-03-02T16:56:57.584Z,24.00
2019-03-02T17:00:21.430Z,23.00
2019-03-02T17:03:39.068Z,23.77
2019-03-02T17:07:00.332Z,22.60
2019-03-02T17:10:29.048Z,22.27
2019-03-02T17:13:40.033Z,21.77
2019-03-02T17:17:02.817Z,23.47
2019-03-02T17:20:24.552Z,23.23
2019-03-02T17:23:47.586Z,23.80
2019-03-02T17:27:11.698Z,24.33
2019-03-02T17:30:36.657Z,24.37
2019-03-02T17:34:03.563Z,26.00
2019-03-02T17:37:35.880Z,24.30
2019-03-02T17:41:07.758Z,24.10
2019-03-02T17:44:23.569Z,26.57
2019-03-02T17:47:48.097Z,23.67
2019-03-02T17:51:18.459Z,25.47
2019-03-02T17:54:46.536Z,25.17
2019-03-02T17:58:09.863Z,22.63
2019-03-02T18:01:33.879Z,23.53
2019-03-02T18:04:47.827Z,23.23
2019-03-02T18:08:08.795Z,24.30
2019-03-02T18:11:32.648Z,23.33
2019-03-02T18:14:56.670Z,22.57
2019-03-02T18:18:00.972Z,22.73
2019-03-02T18:21:06.052Z,24.00
2019-03-02T18:24:11.056Z,24.23
2019-03-02T18:27:16.107Z,24.80
2019-03-02T18:30:21.569Z,24.27
2019-03-02T18:33:40.007Z,24.13
2019-03-02T18:36:49.965Z,23.03
2019-03-02T18:39:53.778Z,24.13
2019-03-02T18:42:58.907Z,26.33
2019-03-02T18:46:04.056Z,23.40
2019-03-02T18:49:18.624Z,23.47
2019-03-02T18:52:39.066Z,25.23
2019-03-02T18:55:44.268Z,22.23
2019-03-02T18:58:49.383Z,23.77
2019-03-02T19:01:54.356Z,24.63
2019-03-02T19:04:59.407Z,27.03
2019-03-02T19:08:05.059Z,26.20
2019-03-02T19:11:10.629Z,25.33
2019-03-02T19:14:16.905Z,24.43
2019-03-02T19:17:24.508Z,23.03
2019-03-02T19:20:29.511Z,23.73
2019-03-02T19:23:34.663Z,23.17
2019-03-02T19:26:39.841Z,25.27
2019-03-02T19:29:44.802Z,26.80
2019-03-02T19:32:50.081Z,24.63
2019-03-02T19:35:55.184Z,23.07
2019-03-02T19:39:00.568Z,23.33
2019-03-02T19:42:05.813Z,23.33
2019-03-02T19:45:11.133Z,23.80
2019-03-02T19:48:16.329Z,23.90
2019-03-02T19:51:21.350Z,25.97
2019-03-02T19:54:26.520Z,25.47
2019-03-02T19:57:31.706Z,24.40
2019-03-02T20:00:36.969Z,23.77
2019-03-02T20:03:42.052Z,24.40
2019-03-02T20:06:47.322Z,25.87
2019-03-02T20:09:52.473Z,27.47
2019-03-02T20:12:57.691Z,26.00
2019-03-02T20:16:03.099Z,24.97
2019-03-02T20:19:08.356Z,22.80
2019-03-02T20:22:13.398Z,22.43
2019-03-02T20:25:18.537Z,25.30
2019-03-02T20:28:23.581Z,24.10
2019-03-02T20:31:28.750Z,24.77
2019-03-02T20:34:33.815Z,24.30
2019-03-02T20:37:39.003Z,23.37
2019-03-02T20:40:44.121Z,24.97
2019-03-02T20:43:49.171Z,21.77
2019-03-02T20:46:54.444Z,22.90
2019-03-02T20:49:59.556Z,23.30
2019-03-02T20:53:04.674Z,23.97
2019-03-02T20:56:09.815Z,23.53
2019-03-02T20:59:14.790Z,24.77
2019-03-02T21:02:19.801Z,23.77
2019-03-02T21:05:25.111Z,22.90
2019-03-02T21:08:30.101Z,24.53
2019-03-02T21:11:35.157Z,28.00
2019-03-02T21:14:40.369Z,24.57
2019-03-02T21:17:45.432Z,22.80
2019-03-02T21:20:50.843Z,20.87
2019-03-02T21:23:58.065Z,22.73
2019-03-02T21:27:03.198Z,22.13
2019-03-02T21:30:10.764Z,21.23
2019-03-02T21:33:16.035Z,21.40
2019-03-02T21:36:23.745Z,17.90
2019-03-02T21:39:28.871Z,19.53
2019-03-02T21:42:33.996Z,15.73
2019-03-02T21:45:39.159Z,14.20
2019-03-02T21:48:44.348Z,13.50
2019-03-02T21:51:49.722Z,13.30
2019-03-02T21:54:54.865Z,14.23
2019-03-02T21:57:59.937Z,12.30
2019-03-02T22:01:05.068Z,13.40
2019-03-02T22:04:10.042Z,11.33
2019-03-02T22:07:15.030Z,13.07
2019-03-02T22:10:26.081Z,11.07
2019-03-02T22:13:31.130Z,12.37
2019-03-02T22:16:36.182Z,10.53
2019-03-02T22:19:41.541Z,11.30
2019-03-02T22:22:46.584Z,9.63
2019-03-02T22:25:51.631Z,10.03
2019-03-02T22:28:56.747Z,9.60
2019-03-02T22:32:02.079Z,9.40
2019-03-02T22:35:07.347Z,10.03
2019-03-02T22:38:12.524Z,8.87
2019-03-02T22:41:17.743Z,10.70
2019-03-02T22:44:22.871Z,9.90
2019-03-02T22:47:27.853Z,10.60
2019-03-02T22:50:32.983Z,8.37
2019-03-02T22:53:38.005Z,9.00
2019-03-02T22:56:43.050Z,9.27
2019-03-02T23:00:37.650Z,9.03
2019-03-02T23:03:41.325Z,8.27
2019-03-02T23:06:46.502Z,7.77
2019-03-02T23:09:51.472Z,7.57
2019-03-02T23:12:56.655Z,6.97
2019-03-02T23:16:01.870Z,7.80
2019-03-02T23:19:06.959Z,6.93
2019-03-02T23:22:12.080Z,7.60
2019-03-02T23:25:17.126Z,6.77
2019-03-02T23:28:22.169Z,6.60
2019-03-02T23:31:27.276Z,7.37
2019-03-02T23:34:37.126Z,6.60
2019-03-02T23:37:39.107Z,7.67
2019-03-02T23:40:44.224Z,6.67
2019-03-02T23:43:49.173Z,6.43
2019-03-02T23:46:54.289Z,5.93
2019-03-02T23:49:59.351Z,7.50
2019-03-02T23:53:04.535Z,7.17
2019-03-02T23:56:09.633Z,7.23
2019-03-02T23:59:14.596Z,7.03
